Terminal Aerodrome Forecast
Issued by NWS Austin/San Antonio, TX

Home | Current Version | Previous Version | Text Only | Print | Product List | Glossary On
Versions: 1 2 3 4 5 6 7 8 9 10 11 12 13 14 15 16 17 18 19 20 21 22 23 24
898
FTUS44 KEWX 281140 CCA
TAFDRT
TAF COR
KDRT 281140Z 2812/2912 08004KT P6SM OVC009
     FM281700 11012KT P6SM BKN050
     FM282200 13013KT P6SM VCTS SCT050CB BKN150
     FM290500 11012KT P6SM OVC050=

USA.gov is the U.S. government's official web portal to all federal, state and local government web resources and services.